Time;durP1;ratioP1;P1;durP2;ratioP2;P2;SDS_P1;SDS_P2;PMS_P1;PMS_P2;Temp;Humidity;BMP_temperature;BMP_pressure;BME280_temperature;BME280_humidity;BME280_pressure;Samples;Min_cycle;Max_cycle;Signal;HPM_P1;HPM_P2
2021/12/26 00:01:08;;;;;;;28.1;41.2;;;;;;;-8;76.1;98540;;;;
2021/12/26 00:12:08;;;;;;;24.7;41;;;;;;;-8;76.1;98540;;;;
2021/12/26 00:23:08;;;;;;;24.7;41;;;;;;;-8.2;75.5;98540;;;;
2021/12/26 00:33:08;;;;;;;24.7;41;;;;;;;-8.3;75.9;98540;;;;
2021/12/26 00:43:08;;;;;;;25.6;40.2;;;;;;;-8.3;76;98540;;;;
2021/12/26 00:54:08;;;;;;;25.6;40.2;;;;;;;-8.4;76.3;98530;;;;
2021/12/26 01:04:08;;;;;;;25.6;40.2;;;;;;;-8.4;76.1;98530;;;;
2021/12/26 01:15:10;;;;;;;23.2;37.3;;;;;;;-8.5;75.8;98540;;;;
2021/12/26 01:26:08;;;;;;;23.2;37.3;;;;;;;-8.7;75.5;98530;;;;
2021/12/26 01:37:08;;;;;;;23.2;37.3;;;;;;;-9;74.1;98530;;;;
2021/12/26 01:48:08;;;;;;;22.2;33.7;;;;;;;-9.4;75.1;98520;;;;
2021/12/26 01:59:08;;;;;;;22.2;33.7;;;;;;;-9.4;75.8;98510;;;;
2021/12/26 02:09:12;;;;;;;22.2;33.7;;;;;;;-9.3;76.6;98510;;;;
2021/12/26 02:19:08;;;;;;;18.2;28.5;;;;;;;-9.1;78;98520;;;;
2021/12/26 02:29:08;;;;;;;18.2;28.5;;;;;;;-9.1;76.9;98520;;;;
2021/12/26 02:39:08;;;;;;;18.2;28.5;;;;;;;-9.1;76.8;98520;;;;
2021/12/26 02:50:08;;;;;;;15.8;22.9;;;;;;;-9.2;75.9;98510;;;;
2021/12/26 03:00:08;;;;;;;15.8;22.9;;;;;;;-9.7;74.6;98500;;;;
2021/12/26 03:11:08;;;;;;;16.4;25.6;;;;;;;-9.6;76.2;98510;;;;
2021/12/26 03:22:08;;;;;;;16.4;25.6;;;;;;;-9.5;76.3;98520;;;;
2021/12/26 03:32:08;;;;;;;16.4;25.6;;;;;;;-9.8;76.4;98520;;;;
2021/12/26 03:43:08;;;;;;;17.4;26.1;;;;;;;-9.8;75.4;98540;;;;
2021/12/26 03:54:08;;;;;;;17.4;26.1;;;;;;;-10.1;74.8;98530;;;;
2021/12/26 04:05:08;;;;;;;17.4;26.1;;;;;;;-10;76;98540;;;;
2021/12/26 04:15:08;;;;;;;17.7;27.1;;;;;;;-10;76.2;98550;;;;
2021/12/26 04:25:08;;;;;;;17.7;27.1;;;;;;;-10;76.3;98560;;;;
2021/12/26 04:35:08;;;;;;;17.7;27.1;;;;;;;-10;76.1;98570;;;;
2021/12/26 04:45:08;;;;;;;16.1;23;;;;;;;-10.1;75.8;98580;;;;
2021/12/26 04:55:08;;;;;;;16.1;23;;;;;;;-10.2;75;98580;;;;
2021/12/26 05:06:08;;;;;;;16.1;23;;;;;;;-10.4;74.7;98600;;;;
2021/12/26 05:16:08;;;;;;;19.6;29.4;;;;;;;-10.4;75.1;98590;;;;
2021/12/26 05:26:08;;;;;;;19.6;29.4;;;;;;;-10.4;75;98580;;;;
2021/12/26 05:37:08;;;;;;;19.6;29.4;;;;;;;-10.5;74.3;98580;;;;
2021/12/26 05:47:08;;;;;;;14.8;23.8;;;;;;;-10.6;74.5;98580;;;;
2021/12/26 05:57:08;;;;;;;14.8;23.8;;;;;;;-10.6;74.7;98580;;;;
2021/12/26 06:08:08;;;;;;;14.8;23.8;;;;;;;-10.6;74.4;98580;;;;
2021/12/26 06:18:08;;;;;;;17.7;28.1;;;;;;;-10.7;74.1;98580;;;;
2021/12/26 06:29:08;;;;;;;17.7;28.1;;;;;;;-10.8;73.7;98590;;;;
2021/12/26 06:39:08;;;;;;;19;31.4;;;;;;;-10.9;73.6;98600;;;;
2021/12/26 06:50:08;;;;;;;19;31.4;;;;;;;-11.1;73.2;98600;;;;
2021/12/26 07:01:10;;;;;;;19;31.4;;;;;;;-11;73.3;98610;;;;
2021/12/26 07:11:08;;;;;;;20.1;29.7;;;;;;;-11;74;98630;;;;
2021/12/26 07:22:08;;;;;;;20.1;29.7;;;;;;;-10.9;74.5;98630;;;;
2021/12/26 07:33:08;;;;;;;20.1;29.7;;;;;;;-10.6;75.3;98640;;;;
2021/12/26 07:43:08;;;;;;;18.9;29.9;;;;;;;-10.3;75;98640;;;;
2021/12/26 07:53:11;;;;;;;18.9;29.9;;;;;;;-10;74.3;98650;;;;
2021/12/26 08:04:08;;;;;;;18.9;29.9;;;;;;;-9.7;74.1;98650;;;;
2021/12/26 08:15:08;;;;;;;34;47.8;;;;;;;-9.6;74;98670;;;;
2021/12/26 08:25:08;;;;;;;34;47.8;;;;;;;-9.1;74.3;98670;;;;
2021/12/26 08:36:08;;;;;;;34;47.8;;;;;;;-8.6;74.6;98670;;;;
2021/12/26 08:46:08;;;;;;;33.4;43.8;;;;;;;-8.1;74.5;98680;;;;
2021/12/26 08:57:08;;;;;;;33.4;43.8;;;;;;;-8;75.3;98670;;;;
2021/12/26 09:07:08;;;;;;;33.4;43.8;;;;;;;-7.6;75.5;98660;;;;
2021/12/26 09:18:08;;;;;;;38.2;47.1;;;;;;;-7.9;75.6;98660;;;;
2021/12/26 09:28:09;;;;;;;38.2;47.1;;;;;;;-7.1;74.9;98650;;;;
2021/12/26 09:38:08;;;;;;;47.1;55.8;;;;;;;-7;74.3;98640;;;;
2021/12/26 09:48:08;;;;;;;47.1;55.8;;;;;;;-6.6;74;98630;;;;
2021/12/26 09:58:08;;;;;;;47.1;55.8;;;;;;;-6.4;73.4;98630;;;;
2021/12/26 10:08:08;;;;;;;42.7;56.8;;;;;;;-6.4;73.9;98630;;;;
2021/12/26 10:19:08;;;;;;;42.7;56.8;;;;;;;-6.2;73.5;98640;;;;
2021/12/26 10:30:11;;;;;;;42.7;56.8;;;;;;;-6.1;73.6;98630;;;;
2021/12/26 10:41:08;;;;;;;43.6;53.6;;;;;;;-5.2;72.3;98630;;;;
2021/12/26 10:51:08;;;;;;;43.6;53.6;;;;;;;-4.8;72.2;98630;;;;
2021/12/26 11:01:10;;;;;;;43.6;53.6;;;;;;;-4.8;71.3;98630;;;;
2021/12/26 11:12:08;;;;;;;50.7;61;;;;;;;-4.5;71;98630;;;;
2021/12/26 11:22:08;;;;;;;50.7;61;;;;;;;-4.7;71.2;98620;;;;
2021/12/26 11:33:08;;;;;;;50.7;61;;;;;;;-4.4;70;98620;;;;
2021/12/26 11:44:08;;;;;;;50;58.5;;;;;;;-4.1;69;98620;;;;
2021/12/26 11:55:09;;;;;;;50;58.5;;;;;;;-3.9;68.1;98610;;;;
2021/12/26 12:05:08;;;;;;;50;58.5;;;;;;;-3.9;67.1;98600;;;;
2021/12/26 12:15:08;;;;;;;41.3;50;;;;;;;-3.9;65.9;98600;;;;
2021/12/26 12:25:08;;;;;;;41.3;50;;;;;;;-3.5;66.7;98600;;;;
2021/12/26 12:36:08;;;;;;;41.3;50;;;;;;;-3.9;65.7;98610;;;;
2021/12/26 12:46:09;;;;;;;44;52.6;;;;;;;-4;65.6;98600;;;;
2021/12/26 12:57:08;;;;;;;44;52.6;;;;;;;-4;65.8;98610;;;;
2021/12/26 13:08:08;;;;;;;43.4;52.9;;;;;;;-4.1;66.4;98610;;;;
2021/12/26 13:18:08;;;;;;;43.4;52.9;;;;;;;-4.4;67.2;98610;;;;
2021/12/26 13:28:08;;;;;;;43.4;52.9;;;;;;;-4.5;67.8;98610;;;;
2021/12/26 13:39:08;;;;;;;43.7;54.3;;;;;;;-4.8;68.2;98620;;;;
2021/12/26 13:50:08;;;;;;;43.7;54.3;;;;;;;-5.1;69;98630;;;;
2021/12/26 14:00:08;;;;;;;43.7;54.3;;;;;;;-5.4;70;98640;;;;
2021/12/26 14:11:08;;;;;;;40.3;50;;;;;;;-5.6;70.6;98650;;;;
2021/12/26 14:22:08;;;;;;;40.3;50;;;;;;;-6;72.1;98640;;;;
2021/12/26 14:32:08;;;;;;;40.3;50;;;;;;;-6.2;73.7;98640;;;;
2021/12/26 14:42:09;;;;;;;39.1;47.1;;;;;;;-6.4;74.9;98650;;;;
2021/12/26 14:52:08;;;;;;;39.1;47.1;;;;;;;-6.5;75;98640;;;;
2021/12/26 15:03:08;;;;;;;39.1;47.1;;;;;;;-6.7;75.1;98640;;;;
2021/12/26 15:13:08;;;;;;;43.3;57;;;;;;;-7;75.6;98650;;;;
2021/12/26 15:24:08;;;;;;;43.3;57;;;;;;;-7.1;76.3;98650;;;;
2021/12/26 15:34:08;;;;;;;43.3;57;;;;;;;-7.2;76.2;98660;;;;
2021/12/26 15:45:08;;;;;;;49.7;59.3;;;;;;;-7.4;76.2;98660;;;;
2021/12/26 15:55:08;;;;;;;49.7;59.3;;;;;;;-7.6;75.8;98650;;;;
2021/12/26 16:05:08;;;;;;;49.7;59.3;;;;;;;-7.8;75.4;98660;;;;
2021/12/26 16:15:08;;;;;;;57.7;71;;;;;;;-8;75.3;98670;;;;
2021/12/26 16:26:09;;;;;;;57.7;71;;;;;;;-8.3;75;98680;;;;
2021/12/26 16:36:08;;;;;;;59.8;70.8;;;;;;;-8.5;75.1;98680;;;;
2021/12/26 16:46:08;;;;;;;59.8;70.8;;;;;;;-8.6;75.4;98680;;;;
2021/12/26 16:56:08;;;;;;;59.8;70.8;;;;;;;-8.8;75.5;98670;;;;
2021/12/26 17:06:08;;;;;;;73.6;95.2;;;;;;;-8.9;74.8;98680;;;;
2021/12/26 17:16:08;;;;;;;73.6;95.2;;;;;;;-9;75;98680;;;;
2021/12/26 17:27:08;;;;;;;73.6;95.2;;;;;;;-9.1;75.4;98680;;;;
2021/12/26 17:37:08;;;;;;;64.8;77.1;;;;;;;-9.2;75.6;98690;;;;
2021/12/26 17:47:08;;;;;;;64.8;77.1;;;;;;;-9.2;75.4;98680;;;;
2021/12/26 17:58:08;;;;;;;64.8;77.1;;;;;;;-9.3;75.2;98680;;;;
2021/12/26 18:09:08;;;;;;;58.7;76.7;;;;;;;-9.4;74.9;98680;;;;
2021/12/26 18:19:08;;;;;;;58.7;76.7;;;;;;;-9.5;74.7;98670;;;;
2021/12/26 18:30:08;;;;;;;58.7;76.7;;;;;;;-9.6;76;98680;;;;
2021/12/26 18:40:08;;;;;;;59.2;77.5;;;;;;;-9.7;75.8;98680;;;;
2021/12/26 18:50:08;;;;;;;59.2;77.5;;;;;;;-9.7;75.4;98670;;;;
2021/12/26 19:00:08;;;;;;;59.2;77.5;;;;;;;-9.7;74.2;98670;;;;
2021/12/26 19:11:08;;;;;;;64.4;86.5;;;;;;;-9.8;74.1;98670;;;;
2021/12/26 19:21:08;;;;;;;64.4;86.5;;;;;;;-10;73.9;98680;;;;
2021/12/26 19:31:08;;;;;;;64.4;86.5;;;;;;;-10.1;74.1;98670;;;;
2021/12/26 19:41:11;;;;;;;65.7;83.9;;;;;;;-10.3;74.1;98680;;;;
2021/12/26 19:51:08;;;;;;;65.7;83.9;;;;;;;-10.3;74.2;98670;;;;
2021/12/26 20:02:08;;;;;;;65.7;83.9;;;;;;;-10.5;73.8;98680;;;;
2021/12/26 20:12:09;;;;;;;70.5;94.4;;;;;;;-10.7;73.4;98670;;;;
2021/12/26 20:23:09;;;;;;;70.5;94.4;;;;;;;-10.8;73.5;98660;;;;
2021/12/26 20:34:08;;;;;;;70.5;94.4;;;;;;;-10.9;73.3;98660;;;;
2021/12/26 20:44:08;;;;;;;75.8;108;;;;;;;-11.1;73.3;98650;;;;
2021/12/26 20:55:08;;;;;;;75.8;108;;;;;;;-11.1;73.9;98650;;;;
2021/12/26 21:05:08;;;;;;;58.8;87.6;;;;;;;-11;74.4;98670;;;;
2021/12/26 21:15:09;;;;;;;58.8;87.6;;;;;;;-11;74.4;98680;;;;
2021/12/26 21:25:08;;;;;;;58.8;87.6;;;;;;;-11.2;74.2;98680;;;;
2021/12/26 21:35:08;;;;;;;65.5;95.5;;;;;;;-11.1;74.2;98670;;;;
2021/12/26 21:46:08;;;;;;;65.5;95.5;;;;;;;-11.1;74.1;98670;;;;
2021/12/26 21:56:08;;;;;;;65.5;95.5;;;;;;;-10.9;74.1;98660;;;;
2021/12/26 22:06:08;;;;;;;67.4;90;;;;;;;-11;73.5;98660;;;;
2021/12/26 22:17:08;;;;;;;67.4;90;;;;;;;-11.1;73.2;98670;;;;
2021/12/26 22:27:08;;;;;;;67.4;90;;;;;;;-11.3;73.3;98660;;;;
2021/12/26 22:38:08;;;;;;;71.8;104.4;;;;;;;-11.2;73.1;98650;;;;
2021/12/26 22:48:08;;;;;;;71.8;104.4;;;;;;;-11.3;74.8;98650;;;;
2021/12/26 22:58:10;;;;;;;71.8;104.4;;;;;;;-11.1;74.7;98630;;;;
2021/12/26 23:08:08;;;;;;;69;94.4;;;;;;;-11.1;73.9;98640;;;;
2021/12/26 23:18:10;;;;;;;69;94.4;;;;;;;-11.3;73.1;98630;;;;
2021/12/26 23:28:08;;;;;;;69;94.4;;;;;;;-11.6;73.5;98620;;;;
2021/12/26 23:38:09;;;;;;;53.9;70.9;;;;;;;-11.6;74.3;98620;;;;
2021/12/26 23:49:08;;;;;;;53.9;70.9;;;;;;;-11.8;74.4;98610;;;;
2021/12/26 23:59:08;;;;;;;53.9;70.9;;;;;;;-11.6;74;98610;;;;
